Time;durP1;ratioP1;P1;durP2;ratioP2;P2;SDS_P1;SDS_P2;PMS_P1;PMS_P2;Temp;Humidity;BMP_temperature;BMP_pressure;BME280_temperature;BME280_humidity;BME280_pressure;Samples;Min_cycle;Max_cycle;Signal;HPM_P1;HPM_P2
2021/04/17 00:01:47;;;;;;;9.15;2.05;;;10.70;75.60;;;;;;4983177;28;20034;-75
2021/04/17 00:04:15;;;;;;;4.30;1.80;;;10.60;76.00;;;;;;4996287;28;20112;-75
2021/04/17 00:06:43;;;;;;;3.78;2.03;;;10.40;76.60;;;;;;4979712;28;20497;-75
2021/04/17 00:09:15;;;;;;;3.90;2.10;;;10.40;77.30;;;;;;4981806;28;20111;-75
2021/04/17 00:11:45;;;;;;;4.40;2.15;;;10.40;77.30;;;;;;4979520;28;20149;-75
2021/04/17 00:14:16;;;;;;;5.53;3.08;;;10.30;77.90;;;;;;4982378;28;20042;-75
2021/04/17 00:16:45;;;;;;;4.43;2.58;;;10.30;78.10;;;;;;4990188;28;20069;-75
2021/04/17 00:19:13;;;;;;;5.03;2.58;;;10.20;79.10;;;;;;4962838;28;20489;-74
2021/04/17 00:21:41;;;;;;;5.75;2.65;;;10.20;79.30;;;;;;4981849;28;20172;-75
2021/04/17 00:24:09;;;;;;;3.05;1.83;;;10.20;79.50;;;;;;4977962;28;20042;-75
2021/04/17 00:26:38;;;;;;;4.15;1.95;;;10.10;79.70;;;;;;4980068;28;20048;-75
2021/04/17 00:29:07;;;;;;;2.95;2.17;;;10.10;80.20;;;;;;4990676;28;20116;-75
2021/04/17 00:31:36;;;;;;;4.57;2.20;;;10.00;80.40;;;;;;4975371;28;20057;-75
2021/04/17 00:34:05;;;;;;;5.97;3.30;;;10.00;80.70;;;;;;4981712;28;20045;-75
2021/04/17 00:36:33;;;;;;;6.32;3.20;;;10.00;80.70;;;;;;4995405;28;20507;-74
2021/04/17 00:39:02;;;;;;;7.13;4.22;;;10.00;80.80;;;;;;4982267;28;20497;-75
2021/04/17 00:41:30;;;;;;;6.28;4.00;;;10.00;80.80;;;;;;4981741;28;20054;-75
2021/04/17 00:43:59;;;;;;;7.13;2.78;;;9.90;80.90;;;;;;4983595;28;20038;-75
2021/04/17 00:46:27;;;;;;;3.53;2.08;;;9.90;80.70;;;;;;4993435;28;20042;-75
2021/04/17 00:48:56;;;;;;;2.67;1.95;;;9.90;80.50;;;;;;4998071;28;20412;-75
2021/04/17 00:51:24;;;;;;;3.17;1.90;;;9.90;80.40;;;;;;4983549;28;20046;-76
2021/04/17 00:53:53;;;;;;;2.60;1.40;;;9.90;79.70;;;;;;4979777;28;20419;-75
2021/04/17 00:56:22;;;;;;;3.90;1.52;;;9.90;79.20;;;;;;4996158;28;20119;-75
2021/04/17 00:58:50;;;;;;;2.83;1.70;;;10.00;78.80;;;;;;4991436;28;20081;-75
2021/04/17 01:01:20;;;;;;;2.03;1.40;;;9.90;78.60;;;;;;4983454;28;20034;-76
2021/04/17 01:03:54;;;;;;;2.53;1.30;;;9.90;78.80;;;;;;4996213;28;20080;-75
2021/04/17 01:06:27;;;;;;;1.90;1.30;;;9.90;78.10;;;;;;4972742;28;20049;-75
2021/04/17 01:09:01;;;;;;;3.10;1.38;;;9.90;76.40;;;;;;4994057;28;20046;-75
2021/04/17 01:11:37;;;;;;;1.80;1.25;;;10.00;76.20;;;;;;4973340;28;20088;-76
2021/04/17 01:14:06;;;;;;;1.52;1.13;;;10.10;76.80;;;;;;4982074;28;20532;-76
2021/04/17 01:16:36;;;;;;;2.85;1.30;;;10.10;76.90;;;;;;4978981;28;20392;-75
2021/04/17 01:19:09;;;;;;;3.00;1.63;;;10.00;77.40;;;;;;4982855;28;20074;-75
2021/04/17 01:21:39;;;;;;;3.10;1.60;;;9.90;77.90;;;;;;4972176;28;20046;-76
2021/04/17 01:24:13;;;;;;;2.00;1.42;;;9.80;78.30;;;;;;4972565;28;20054;-75
2021/04/17 01:26:43;;;;;;;3.47;1.60;;;9.80;78.40;;;;;;4984865;28;20042;-76
2021/04/17 01:29:12;;;;;;;3.10;1.05;;;9.80;78.60;;;;;;4982890;28;20049;-75
2021/04/17 01:31:41;;;;;;;2.03;1.52;;;9.80;78.70;;;;;;4999483;28;20512;-76
2021/04/17 01:34:10;;;;;;;2.22;1.48;;;9.90;78.30;;;;;;4995027;28;20050;-75
2021/04/17 01:36:39;;;;;;;3.55;1.40;;;9.80;78.80;;;;;;4967368;28;20081;-75
2021/04/17 01:39:09;;;;;;;3.22;1.50;;;9.70;78.80;;;;;;4982764;28;20129;-75
2021/04/17 01:41:40;;;;;;;3.15;1.52;;;9.70;78.70;;;;;;4978921;28;20050;-76
2021/04/17 01:44:11;;;;;;;2.15;1.25;;;9.70;78.30;;;;;;4978275;28;20062;-75
2021/04/17 01:46:44;;;;;;;3.85;1.50;;;9.80;79.00;;;;;;4964303;28;20042;-75
2021/04/17 01:49:14;;;;;;;4.63;1.63;;;9.70;78.80;;;;;;4993418;28;20039;-75
2021/04/17 01:51:44;;;;;;;3.90;1.80;;;9.60;78.70;;;;;;4978634;28;20527;-75
2021/04/17 01:54:18;;;;;;;3.40;1.42;;;9.70;79.80;;;;;;4993571;28;20038;-75
2021/04/17 01:56:47;;;;;;;4.22;1.90;;;9.70;79.60;;;;;;4980319;28;20484;-74
2021/04/17 01:59:21;;;;;;;4.18;2.30;;;9.70;79.50;;;;;;4977994;28;20046;-76
2021/04/17 02:01:49;;;;;;;3.03;2.17;;;9.50;79.30;;;;;;4982015;28;20504;-75
2021/04/17 02:04:17;;;;;;;4.07;2.50;;;9.50;79.50;;;;;;4977642;28;20041;-75
2021/04/17 02:06:45;;;;;;;2.63;1.73;;;9.50;79.60;;;;;;4999334;28;20048;-75
2021/04/17 02:09:13;;;;;;;2.75;1.70;;;9.60;79.00;;;;;;4964984;28;20054;-75
2021/04/17 02:11:41;;;;;;;2.05;1.40;;;9.70;78.60;;;;;;4968814;28;20104;-76
2021/04/17 02:14:09;;;;;;;5.78;1.65;;;9.70;78.90;;;;;;4980014;28;20050;-75
2021/04/17 02:16:43;;;;;;;3.03;1.40;;;9.60;79.00;;;;;;5001964;28;20042;-75
2021/04/17 02:19:28;;;;;;;2.47;1.50;;;9.60;79.00;;;;;;4980121;28;20081;-76
2021/04/17 02:21:58;;;;;;;3.10;1.63;;;9.70;78.90;;;;;;4974338;28;20553;-75
2021/04/17 02:24:27;;;;;;;2.33;1.50;;;9.80;79.10;;;;;;4986236;28;20285;-75
2021/04/17 02:26:56;;;;;;;3.40;1.67;;;9.50;79.40;;;;;;4997786;28;20107;-75
2021/04/17 02:29:24;;;;;;;3.92;1.80;;;9.30;79.40;;;;;;5002640;28;20772;-75
2021/04/17 02:31:53;;;;;;;5.53;3.75;;;9.40;79.30;;;;;;4984133;28;20057;-75
2021/04/17 02:34:22;;;;;;;5.55;3.92;;;9.20;79.10;;;;;;4991000;28;20034;-75
2021/04/17 02:36:50;;;;;;;5.57;3.65;;;9.20;79.40;;;;;;4969926;28;20045;-75
2021/04/17 02:39:18;;;;;;;5.18;3.60;;;9.30;79.70;;;;;;4993593;28;20488;-75
2021/04/17 02:41:46;;;;;;;5.70;3.78;;;9.40;79.60;;;;;;4985998;28;20052;-75
2021/04/17 02:44:14;;;;;;;6.53;3.78;;;9.40;79.60;;;;;;4999678;28;20038;-76
2021/04/17 02:46:41;;;;;;;7.22;3.60;;;9.30;79.70;;;;;;4980592;28;20426;-75
2021/04/17 02:49:11;;;;;;;6.07;3.63;;;9.30;79.80;;;;;;4967102;28;20137;-75
2021/04/17 02:51:39;;;;;;;6.93;3.13;;;9.40;79.50;;;;;;4968830;28;20515;-75
2021/04/17 02:54:07;;;;;;;8.43;4.05;;;9.50;79.60;;;;;;4981416;28;20034;-75
2021/04/17 02:56:34;;;;;;;7.10;3.53;;;9.50;78.90;;;;;;5000959;28;20062;-75
2021/04/17 02:59:03;;;;;;;4.65;3.08;;;9.50;79.10;;;;;;4988225;28;20042;-75
2021/04/17 03:01:31;;;;;;;4.70;2.53;;;9.60;79.00;;;;;;4999506;28;20515;-75
2021/04/17 03:03:59;;;;;;;3.28;2.20;;;9.70;77.40;;;;;;4960180;28;20570;-75
2021/04/17 03:06:28;;;;;;;3.10;1.85;;;9.60;78.20;;;;;;5001271;28;20034;-75
2021/04/17 03:08:56;;;;;;;3.28;1.70;;;9.70;77.80;;;;;;4967175;28;20107;-75
2021/04/17 03:11:25;;;;;;;3.40;1.77;;;9.80;77.50;;;;;;4983093;28;20440;-75
2021/04/17 03:13:58;;;;;;;2.60;1.27;;;9.80;76.50;;;;;;4983673;28;20045;-75
2021/04/17 03:16:26;;;;;;;2.33;1.40;;;9.90;76.30;;;;;;5001790;28;20080;-75
2021/04/17 03:18:54;;;;;;;3.13;1.27;;;9.90;75.90;;;;;;4982636;28;20072;-75
2021/04/17 03:21:22;;;;;;;4.13;1.52;;;10.00;76.20;;;;;;4998667;28;20041;-75
2021/04/17 03:23:51;;;;;;;4.43;1.20;;;9.80;75.90;;;;;;4998885;28;20045;-75
2021/04/17 03:26:19;;;;;;;3.00;1.58;;;9.90;76.00;;;;;;4991354;28;20297;-75
2021/04/17 03:28:47;;;;;;;2.13;1.35;;;10.00;75.40;;;;;;4980514;28;20416;-75
2021/04/17 03:31:15;;;;;;;3.25;1.67;;;9.90;74.00;;;;;;5001983;28;20300;-75
2021/04/17 03:33:43;;;;;;;2.70;1.50;;;9.80;74.00;;;;;;4981786;28;20820;-75
2021/04/17 03:36:12;;;;;;;3.40;1.58;;;9.70;74.80;;;;;;4986388;28;20553;-74
2021/04/17 03:38:40;;;;;;;2.13;1.52;;;9.70;74.50;;;;;;4999032;28;20057;-74
2021/04/17 03:41:09;;;;;;;2.50;1.30;;;9.70;74.30;;;;;;4993630;28;20054;-75
2021/04/17 03:43:37;;;;;;;1.80;1.20;;;9.70;74.30;;;;;;4981451;28;20057;-75
2021/04/17 03:46:05;;;;;;;2.92;1.35;;;9.70;74.40;;;;;;4994539;28;20092;-74
2021/04/17 03:48:34;;;;;;;2.40;1.50;;;9.90;74.10;;;;;;4966019;28;20053;-75
2021/04/17 03:51:03;;;;;;;2.88;1.33;;;9.80;74.30;;;;;;4968621;28;20061;-75
2021/04/17 03:53:31;;;;;;;2.13;1.10;;;9.80;74.00;;;;;;4974841;28;20056;-75
2021/04/17 03:55:59;;;;;;;2.97;1.35;;;9.80;74.40;;;;;;4963848;28;20046;-74
2021/04/17 03:58:28;;;;;;;2.92;1.55;;;9.90;74.20;;;;;;4976799;28;20046;-75
2021/04/17 04:00:56;;;;;;;3.58;1.90;;;9.90;73.30;;;;;;4981810;28;20496;-74
2021/04/17 04:03:24;;;;;;;2.45;1.33;;;9.90;73.20;;;;;;4977891;28;20431;-75
2021/04/17 04:05:52;;;;;;;3.83;1.58;;;9.80;73.70;;;;;;4981201;28;20049;-75
2021/04/17 04:08:20;;;;;;;2.88;1.40;;;9.90;74.60;;;;;;4984628;28;20038;-75
2021/04/17 04:10:48;;;;;;;5.10;1.33;;;9.90;73.90;;;;;;4982979;28;20104;-75
2021/04/17 04:13:15;;;;;;;2.42;1.73;;;9.90;73.60;;;;;;4996153;28;20042;-74
2021/04/17 04:15:45;;;;;;;2.78;1.60;;;9.80;74.00;;;;;;4992037;28;20553;-75
2021/04/17 04:18:13;;;;;;;3.75;1.20;;;9.90;74.40;;;;;;4999414;28;20381;-75
2021/04/17 04:20:41;;;;;;;1.40;1.10;;;10.00;73.30;;;;;;4980517;28;20050;-75
2021/04/17 04:23:09;;;;;;;2.63;1.45;;;10.00;74.00;;;;;;4998379;28;20034;-75
2021/04/17 04:25:38;;;;;;;2.65;1.30;;;10.10;74.10;;;;;;4976401;28;20069;-75
2021/04/17 04:28:06;;;;;;;4.28;1.38;;;10.10;74.60;;;;;;4994536;28;20097;-75
2021/04/17 04:30:34;;;;;;;2.40;1.40;;;10.10;74.60;;;;;;4981834;28;20034;-74
2021/04/17 04:33:03;;;;;;;2.50;0.98;;;10.10;75.20;;;;;;5000422;28;20038;-75
2021/04/17 04:35:31;;;;;;;4.40;1.40;;;10.20;74.80;;;;;;4980326;28;20078;-75
2021/04/17 04:37:59;;;;;;;6.43;1.48;;;10.00;74.40;;;;;;4981475;28;20111;-75
2021/04/17 04:40:27;;;;;;;3.80;1.88;;;10.00;74.70;;;;;;4990893;28;20046;-75
2021/04/17 04:42:55;;;;;;;2.60;1.30;;;9.90;74.90;;;;;;4976706;28;20042;-74
2021/04/17 04:45:23;;;;;;;2.63;1.48;;;9.90;75.00;;;;;;4982443;28;20048;-75
2021/04/17 04:47:51;;;;;;;4.70;1.60;;;9.90;74.80;;;;;;4992820;28;20050;-75
2021/04/17 04:50:20;;;;;;;2.67;1.50;;;9.90;75.20;;;;;;4995358;28;20562;-75
2021/04/17 04:52:48;;;;;;;3.25;1.40;;;10.00;74.90;;;;;;4973021;28;20164;-75
2021/04/17 04:55:16;;;;;;;2.00;1.30;;;10.10;74.50;;;;;;4980136;28;20080;-75
2021/04/17 04:57:44;;;;;;;2.55;1.52;;;10.00;74.00;;;;;;5001541;28;20534;-74
2021/04/17 05:00:13;;;;;;;2.53;1.45;;;9.90;74.10;;;;;;4996524;28;20045;-75
2021/04/17 05:02:41;;;;;;;3.85;1.83;;;9.90;75.20;;;;;;4978420;28;20042;-75
2021/04/17 05:05:10;;;;;;;5.70;1.60;;;9.90;74.70;;;;;;4990803;28;20097;-75
2021/04/17 05:07:39;;;;;;;4.03;1.70;;;9.90;75.40;;;;;;4994460;28;20060;-74
2021/04/17 05:10:08;;;;;;;3.40;2.15;;;9.90;75.60;;;;;;4982139;28;20128;-75
2021/04/17 05:12:36;;;;;;;4.32;2.10;;;9.90;75.70;;;;;;4973296;28;20056;-75
2021/04/17 05:15:05;;;;;;;3.40;1.98;;;9.90;75.80;;;;;;4997935;28;20555;-75
2021/04/17 05:17:34;;;;;;;3.53;1.83;;;9.90;75.70;;;;;;4973701;28;20050;-74
2021/04/17 05:20:02;;;;;;;4.07;1.75;;;10.00;74.70;;;;;;4997680;28;20042;-75
2021/04/17 05:22:30;;;;;;;2.38;1.38;;;10.00;74.60;;;;;;4980297;28;20057;-75
2021/04/17 05:24:59;;;;;;;3.22;1.10;;;10.00;73.90;;;;;;4965414;28;20077;-75
2021/04/17 05:27:27;;;;;;;3.70;1.30;;;10.10;72.90;;;;;;4983352;28;20045;-75
2021/04/17 05:29:54;;;;;;;1.92;1.02;;;10.20;72.60;;;;;;4982543;28;20407;-75
2021/04/17 05:32:22;;;;;;;1.73;1.08;;;10.30;72.00;;;;;;4979006;28;20065;-75
2021/04/17 05:34:50;;;;;;;1.38;0.70;;;10.40;71.30;;;;;;4977912;28;20117;-75
2021/04/17 05:37:18;;;;;;;1.45;0.82;;;10.40;71.50;;;;;;4963005;28;20050;-75
2021/04/17 05:39:46;;;;;;;2.65;0.73;;;10.50;71.20;;;;;;4983381;28;20124;-75
2021/04/17 05:42:15;;;;;;;2.03;0.88;;;10.50;71.20;;;;;;4969170;28;20516;-75
2021/04/17 05:44:43;;;;;;;2.28;0.90;;;10.50;70.60;;;;;;4983067;28;20060;-75
2021/04/17 05:47:11;;;;;;;1.27;0.73;;;10.60;71.00;;;;;;4996192;28;20042;-75
2021/04/17 05:49:39;;;;;;;1.83;0.90;;;10.60;70.80;;;;;;4998053;28;20125;-75
2021/04/17 05:52:07;;;;;;;1.60;0.80;;;10.60;70.10;;;;;;4986954;28;20038;-74
2021/04/17 05:54:35;;;;;;;1.50;1.05;;;10.70;70.10;;;;;;4985182;28;20050;-75
2021/04/17 05:57:04;;;;;;;1.90;0.90;;;10.80;70.00;;;;;;4996508;28;20257;-75
2021/04/17 05:59:33;;;;;;;1.92;0.90;;;10.80;70.70;;;;;;4971336;28;20050;-75
2021/04/17 06:02:01;;;;;;;2.63;0.85;;;10.90;69.90;;;;;;4982612;28;21172;-75
2021/04/17 06:04:29;;;;;;;1.65;0.90;;;10.90;70.20;;;;;;4997198;28;20093;-75
2021/04/17 06:06:57;;;;;;;1.77;1.08;;;10.90;69.90;;;;;;4979781;28;20044;-75
2021/04/17 06:09:26;;;;;;;1.77;0.80;;;11.00;70.00;;;;;;4980926;28;20043;-75
2021/04/17 06:11:53;;;;;;;1.30;0.70;;;11.00;70.20;;;;;;4976714;28;20049;-75
2021/04/17 06:14:21;;;;;;;1.73;0.90;;;11.00;69.80;;;;;;5002635;28;20061;-75
2021/04/17 06:16:50;;;;;;;2.90;0.80;;;11.00;70.10;;;;;;4973743;28;20043;-75
2021/04/17 06:19:17;;;;;;;1.83;1.00;;;11.10;70.10;;;;;;4983320;28;20054;-75
2021/04/17 06:21:46;;;;;;;3.10;1.00;;;11.20;70.30;;;;;;4985880;28;20042;-76
2021/04/17 06:24:13;;;;;;;1.23;0.90;;;11.20;70.40;;;;;;4981918;28;20150;-75
2021/04/17 06:26:42;;;;;;;2.58;0.90;;;11.30;70.60;;;;;;4984497;28;20149;-75
2021/04/17 06:29:10;;;;;;;1.80;0.80;;;11.30;70.70;;;;;;4980841;28;20034;-76
2021/04/17 06:31:38;;;;;;;2.38;0.95;;;11.30;70.70;;;;;;4984384;28;20053;-75
2021/04/17 06:34:07;;;;;;;1.52;0.90;;;11.40;70.60;;;;;;4982383;28;20196;-75
2021/04/17 06:36:34;;;;;;;2.30;0.80;;;11.50;70.80;;;;;;4965906;28;20550;-75
2021/04/17 06:39:05;;;;;;;1.40;0.93;;;11.50;71.40;;;;;;4980792;28;20049;-76
2021/04/17 06:41:35;;;;;;;2.35;0.80;;;11.60;71.60;;;;;;4982275;28;20062;-75
2021/04/17 06:44:07;;;;;;;3.72;1.40;;;11.60;71.50;;;;;;4983544;28;20132;-76
2021/04/17 06:46:39;;;;;;;2.53;1.30;;;11.60;71.80;;;;;;4984673;28;20054;-76
2021/04/17 06:49:08;;;;;;;3.45;1.23;;;11.70;71.90;;;;;;4975707;28;20077;-78
2021/04/17 06:51:37;;;;;;;2.17;1.10;;;11.70;72.10;;;;;;4981747;28;20132;-74
2021/04/17 06:54:06;;;;;;;1.65;1.00;;;11.70;71.90;;;;;;4986927;28;20042;-75
2021/04/17 06:56:34;;;;;;;4.50;1.20;;;11.80;72.30;;;;;;4978654;28;20041;-80
2021/04/17 06:59:03;;;;;;;1.75;1.15;;;11.80;72.00;;;;;;4988369;28;20079;-77
2021/04/17 07:01:31;;;;;;;3.65;1.15;;;11.80;72.50;;;;;;4978600;28;20042;-75
2021/04/17 07:03:59;;;;;;;2.33;1.10;;;11.90;73.00;;;;;;4976416;28;20508;-74
2021/04/17 07:06:27;;;;;;;4.22;1.30;;;11.90;72.80;;;;;;4967215;28;20033;-75
2021/04/17 07:08:55;;;;;;;3.45;1.00;;;11.90;72.50;;;;;;4999805;28;20408;-75
2021/04/17 07:11:23;;;;;;;3.17;1.13;;;11.90;72.50;;;;;;4999415;28;20077;-75
2021/04/17 07:14:08;;;;;;;1.85;0.95;;;12.00;72.70;;;;;;4980344;28;20619;-76
2021/04/17 07:17:00;;;;;;;2.85;1.10;;;12.00;72.70;;;;;;4980009;28;20101;-77
2021/04/17 07:19:50;;;;;;;1.65;1.00;;;12.10;73.10;;;;;;4994471;28;20052;-76
2021/04/17 07:22:21;;;;;;;2.08;1.10;;;12.10;73.30;;;;;;4996996;28;20042;-76
2021/04/17 07:24:50;;;;;;;2.75;1.20;;;12.10;72.80;;;;;;4994776;28;20038;-74
2021/04/17 07:27:36;;;;;;;1.90;1.05;;;12.10;72.90;;;;;;4978544;28;20074;-74
2021/04/17 07:30:25;;;;;;;3.13;1.33;;;12.20;72.60;;;;;;4993643;28;20045;-74
2021/04/17 07:33:10;;;;;;;2.65;1.20;;;12.20;72.30;;;;;;4977330;28;20042;-74
2021/04/17 07:35:39;;;;;;;2.20;1.30;;;12.20;72.30;;;;;;4977049;28;20697;-74
2021/04/17 07:38:14;;;;;;;4.28;1.65;;;12.20;71.80;;;;;;4970406;28;20534;-76
2021/04/17 07:40:44;;;;;;;2.97;1.50;;;12.30;71.90;;;;;;4955712;28;20101;-75
2021/04/17 07:43:17;;;;;;;3.08;1.40;;;12.40;71.50;;;;;;4954536;28;20042;-75
2021/04/17 07:45:45;;;;;;;2.30;1.27;;;12.40;71.60;;;;;;4974695;28;20057;-76
2021/04/17 07:48:22;;;;;;;3.85;1.52;;;12.50;71.50;;;;;;4954724;28;20039;-74
2021/04/17 07:50:51;;;;;;;3.25;1.30;;;12.60;72.00;;;;;;4958171;28;20047;-74
2021/04/17 07:53:27;;;;;;;1.95;1.45;;;12.70;72.10;;;;;;4944416;28;20053;-74
2021/04/17 07:55:55;;;;;;;;;;;12.80;71.80;;;;;;4943999;28;20050;-73
2021/04/17 07:58:23;;;;;;;2.60;1.58;;;12.90;72.30;;;;;;4944222;28;19932;-74
2021/04/17 08:00:52;;;;;;;2.90;1.90;;;13.00;72.40;;;;;;4959246;28;20054;-74
2021/04/17 08:03:23;;;;;;;2.38;1.65;;;13.00;72.30;;;;;;4957452;28;20588;-81
2021/04/17 08:05:52;;;;;;;4.88;2.00;;;13.10;71.40;;;;;;4965118;28;20046;-74
2021/04/17 08:08:20;;;;;;;3.17;2.13;;;13.10;72.00;;;;;;4946455;28;20031;-73
2021/04/17 08:10:49;;;;;;;4.60;2.13;;;13.10;71.70;;;;;;4961068;28;20046;-74
2021/04/17 08:13:17;;;;;;;3.33;1.92;;;13.10;72.40;;;;;;4956641;28;20043;-74
2021/04/17 08:15:44;;;;;;;3.55;1.88;;;13.10;72.70;;;;;;4978843;28;20088;-73
2021/04/17 08:18:12;;;;;;;3.85;2.05;;;13.00;72.40;;;;;;4958729;28;20031;-74
2021/04/17 08:20:40;;;;;;;3.65;2.63;;;13.10;73.30;;;;;;4943533;28;20050;-74
2021/04/17 08:23:08;;;;;;;6.13;2.70;;;13.10;72.50;;;;;;4974256;28;20121;-75
2021/04/17 08:25:36;;;;;;;3.70;2.20;;;13.20;72.70;;;;;;4956832;28;20046;-74
2021/04/17 08:28:17;;;;;;;3.42;1.98;;;13.30;72.90;;;;;;4960494;28;20031;-75
2021/04/17 08:30:45;;;;;;;3.30;2.25;;;13.30;73.40;;;;;;4965597;28;20047;-76
2021/04/17 08:33:19;;;;;;;3.97;2.30;;;13.50;73.90;;;;;;4976695;28;20496;-75
2021/04/17 08:35:47;;;;;;;6.07;2.85;;;13.60;72.90;;;;;;4974582;28;20424;-75
2021/04/17 08:38:15;;;;;;;3.85;2.33;;;13.60;73.40;;;;;;4955340;28;20054;-75
2021/04/17 08:40:52;;;;;;;5.72;2.65;;;13.60;72.70;;;;;;4982285;28;20689;-75
2021/04/17 08:43:31;;;;;;;5.10;3.08;;;13.60;72.50;;;;;;4996319;28;20044;-75
2021/04/17 08:46:05;;;;;;;7.80;2.75;;;13.60;72.70;;;;;;4959956;28;20042;-75
2021/04/17 08:48:51;;;;;;;4.53;3.17;;;13.70;72.20;;;;;;4976787;28;20070;-77
2021/04/17 08:51:37;;;;;;;5.18;3.80;;;13.80;72.10;;;;;;4977189;28;20499;-76
2021/04/17 08:54:26;;;;;;;4.32;3.35;;;13.80;71.60;;;;;;4978073;28;20050;-76
2021/04/17 08:57:00;;;;;;;3.63;3.13;;;13.80;72.00;;;;;;4974637;28;20070;-75
2021/04/17 08:59:33;;;;;;;4.25;3.13;;;13.80;72.70;;;;;;4966006;28;20069;-79
2021/04/17 09:02:05;;;;;;;4.80;2.70;;;14.00;72.70;;;;;;4981191;28;20576;-75
2021/04/17 09:04:37;;;;;;;3.92;3.03;;;14.10;72.70;;;;;;5005695;28;20058;-75
2021/04/17 09:07:15;;;;;;;3.80;3.10;;;14.20;71.00;;;;;;4970702;28;20065;-74
2021/04/17 09:09:43;;;;;;;6.85;3.10;;;14.20;71.70;;;;;;4995349;28;20312;-75
2021/04/17 09:12:25;;;;;;;3.80;2.63;;;14.20;71.00;;;;;;4980123;28;20085;-75
2021/04/17 09:15:02;;;;;;;4.20;2.90;;;14.30;70.80;;;;;;4993557;28;20042;-75
2021/04/17 09:17:49;;;;;;;3.42;2.58;;;14.30;71.30;;;;;;4983581;28;20431;-75
2021/04/17 09:20:37;;;;;;;;;;;14.40;71.20;;;;;;4983621;28;20046;-75
2021/04/17 09:23:05;;;;;;;3.40;2.60;;;14.60;72.40;;;;;;4966505;28;20621;-75
2021/04/17 09:25:41;;;;;;;4.43;2.70;;;14.80;70.50;;;;;;4967583;28;20144;-75
2021/04/17 09:28:10;;;;;;;6.43;3.03;;;14.80;68.50;;;;;;5001216;28;20050;-75
2021/04/17 09:30:39;;;;;;;4.78;2.85;;;14.70;67.90;;;;;;4980825;28;20048;-76
2021/04/17 09:33:07;;;;;;;4.75;2.60;;;14.70;69.00;;;;;;4965389;28;20046;-74
2021/04/17 09:35:38;;;;;;;4.40;2.33;;;14.90;69.10;;;;;;5001543;28;20119;-76
2021/04/17 09:38:12;;;;;;;4.28;2.30;;;14.90;68.70;;;;;;4984317;28;20042;-75
2021/04/17 09:40:45;;;;;;;4.72;2.22;;;14.90;67.80;;;;;;4983523;28;20038;-74
2021/04/17 09:43:26;;;;;;;3.33;2.55;;;15.00;68.50;;;;;;4996554;28;20379;-75
2021/04/17 09:45:56;;;;;;;2.95;2.60;;;15.00;67.80;;;;;;4992323;28;20109;-74
2021/04/17 09:48:24;;;;;;;5.50;2.72;;;15.00;67.40;;;;;;4970815;28;20082;-75
2021/04/17 09:50:57;;;;;;;3.83;2.53;;;15.00;67.90;;;;;;4971925;28;20046;-74
2021/04/17 09:53:31;;;;;;;4.32;2.42;;;15.20;68.30;;;;;;4974881;28;20058;-73
2021/04/17 09:56:01;;;;;;;3.75;2.33;;;15.20;68.50;;;;;;4984590;28;20085;-73
2021/04/17 09:58:32;;;;;;;3.03;2.40;;;15.20;68.90;;;;;;4982284;28;20053;-71
2021/04/17 10:01:14;;;;;;;3.67;2.08;;;15.20;68.20;;;;;;4985286;28;20124;-73
2021/04/17 10:03:45;;;;;;;3.30;2.38;;;15.20;67.80;;;;;;5002990;28;20054;-73
2021/04/17 10:06:27;;;;;;;3.80;2.08;;;15.20;68.30;;;;;;4958064;28;20091;-74
2021/04/17 10:08:56;;;;;;;4.82;2.15;;;15.20;67.40;;;;;;4996702;28;20562;-75
2021/04/17 10:11:26;;;;;;;5.95;2.80;;;15.30;67.60;;;;;;4979811;28;20061;-72
2021/04/17 10:13:55;;;;;;;4.38;2.33;;;15.30;67.00;;;;;;4998291;28;20601;-71
2021/04/17 10:16:27;;;;;;;4.20;2.63;;;15.30;67.60;;;;;;4997566;28;20057;-71
2021/04/17 10:18:55;;;;;;;3.70;2.55;;;15.30;67.80;;;;;;4982675;28;20403;-73
2021/04/17 10:21:26;;;;;;;3.63;2.28;;;15.40;66.80;;;;;;4983138;28;20038;-72
2021/04/17 10:24:20;;;;;;;5.43;4.00;;;15.40;67.00;;;;;;4973528;28;20069;-72
2021/04/17 10:27:04;;;;;;;4.50;2.35;;;15.50;67.10;;;;;;4991612;28;20038;-73
2021/04/17 10:29:38;;;;;;;3.47;2.35;;;15.70;67.60;;;;;;4967822;28;20050;-73
2021/04/17 10:32:11;;;;;;;4.38;1.95;;;15.80;67.80;;;;;;4968664;28;20053;-72
2021/04/17 10:34:41;;;;;;;3.08;2.45;;;15.70;66.90;;;;;;4986121;28;20053;-73
2021/04/17 10:37:11;;;;;;;2.30;1.92;;;15.80;67.20;;;;;;4984816;28;20038;-72
2021/04/17 10:39:56;;;;;;;3.15;1.83;;;15.90;66.80;;;;;;4994058;28;20132;-72
2021/04/17 10:42:24;;;;;;;3.65;2.35;;;15.90;65.90;;;;;;4980509;28;20089;-72
2021/04/17 10:44:54;;;;;;;3.88;2.13;;;15.90;66.60;;;;;;4982587;28;20500;-72
2021/04/17 10:47:23;;;;;;;4.35;2.20;;;16.10;66.00;;;;;;4982553;28;20068;-71
2021/04/17 10:49:51;;;;;;;3.80;2.30;;;16.30;66.70;;;;;;4994053;28;20567;-72
2021/04/17 10:52:28;;;;;;;2.22;1.75;;;16.50;64.80;;;;;;5001817;28;20046;-73
2021/04/17 10:54:57;;;;;;;2.20;1.60;;;16.50;65.00;;;;;;4999716;28;20467;-72
2021/04/17 10:57:25;;;;;;;5.55;2.47;;;16.60;65.60;;;;;;4994916;28;20514;-76
2021/04/17 10:59:56;;;;;;;2.97;1.70;;;16.70;64.30;;;;;;4979436;28;20038;-72
2021/04/17 11:02:26;;;;;;;2.83;1.70;;;16.70;65.10;;;;;;4978224;28;20050;-72
2021/04/17 11:04:55;;;;;;;3.08;1.90;;;16.80;64.50;;;;;;4993801;28;20049;-73
2021/04/17 11:07:32;;;;;;;4.10;2.17;;;16.80;64.50;;;;;;5001473;28;20100;-73
2021/04/17 11:10:01;;;;;;;3.90;2.22;;;16.70;65.10;;;;;;4984718;28;20112;-73
2021/04/17 11:12:31;;;;;;;3.40;2.15;;;16.80;64.80;;;;;;4974148;28;20058;-74
2021/04/17 11:15:17;;;;;;;4.57;2.78;;;16.80;65.00;;;;;;4974893;28;20128;-73
2021/04/17 11:18:15;;;;;;;4.43;2.30;;;16.90;65.00;;;;;;4996325;28;20492;-73
2021/04/17 11:20:45;;;;;;;6.68;2.30;;;16.90;63.70;;;;;;4980167;28;20638;-72
2021/04/17 11:23:48;;;;;;;3.17;1.92;;;16.80;63.70;;;;;;4979613;28;20064;-73
2021/04/17 11:26:18;;;;;;;2.15;1.92;;;16.80;64.40;;;;;;4907559;29;20055;-73
2021/04/17 11:28:49;;;;;;;3.00;2.20;;;16.90;64.00;;;;;;4927589;29;20043;-74
2021/04/17 11:31:19;;;;;;;2.53;2.10;;;16.70;64.20;;;;;;4916020;29;20056;-74
2021/04/17 11:33:49;;;;;;;2.85;1.75;;;16.90;64.40;;;;;;4903719;29;20059;-74
2021/04/17 11:36:20;;;;;;;3.30;2.00;;;16.90;63.80;;;;;;4899204;29;20048;-72
2021/04/17 11:38:49;;;;;;;6.07;4.20;;;16.90;63.40;;;;;;4901309;29;20087;-76
2021/04/17 11:41:17;;;;;;;5.53;2.65;;;16.90;63.30;;;;;;4904738;29;20059;-75
2021/04/17 11:43:45;;;;;;;4.93;2.30;;;16.90;63.50;;;;;;4901597;29;20052;-74
2021/04/17 11:46:14;;;;;;;3.95;1.90;;;17.10;63.80;;;;;;4920599;29;20044;-75
2021/04/17 11:48:43;;;;;;;2.72;1.77;;;17.00;63.20;;;;;;4916070;29;20047;-73
2021/04/17 11:51:12;;;;;;;2.50;2.05;;;17.20;64.00;;;;;;4879917;29;20058;-74
2021/04/17 11:53:44;;;;;;;2.50;1.80;;;17.40;64.10;;;;;;4897665;29;20052;-73
2021/04/17 11:56:12;;;;;;;3.90;1.83;;;17.60;63.20;;;;;;4905046;28;20082;-73
2021/04/17 11:58:40;;;;;;;2.80;1.63;;;17.60;62.60;;;;;;4983019;28;20123;-73
2021/04/17 12:01:09;;;;;;;2.95;2.00;;;17.90;62.00;;;;;;4980416;28;20045;-76
2021/04/17 12:03:37;;;;;;;2.97;1.80;;;18.00;62.90;;;;;;4998012;28;20068;-74
2021/04/17 12:06:07;;;;;;;4.07;1.92;;;18.00;62.30;;;;;;4983469;28;20270;-75
2021/04/17 12:08:36;;;;;;;2.97;1.85;;;18.10;62.40;;;;;;4995121;28;20304;-76
2021/04/17 12:11:05;;;;;;;2.90;1.83;;;18.00;61.50;;;;;;4976096;28;20045;-74
2021/04/17 12:13:34;;;;;;;2.05;1.83;;;18.00;61.50;;;;;;4992266;28;20049;-75
2021/04/17 12:16:04;;;;;;;3.08;1.90;;;18.20;62.10;;;;;;4982419;28;20137;-78
2021/04/17 12:18:32;;;;;;;2.72;2.17;;;18.30;62.40;;;;;;4991418;28;20478;-75
2021/04/17 12:21:01;;;;;;;2.60;2.00;;;18.40;61.30;;;;;;4973275;28;20072;-74
2021/04/17 12:23:30;;;;;;;6.95;2.13;;;18.50;60.10;;;;;;4978534;28;20046;-74
2021/04/17 12:25:58;;;;;;;2.33;1.70;;;18.60;60.80;;;;;;4994056;28;20499;-74
2021/04/17 12:28:27;;;;;;;3.00;1.30;;;18.80;59.80;;;;;;4976838;28;20043;-74
2021/04/17 12:30:57;;;;;;;2.95;1.75;;;18.90;60.60;;;;;;4963313;28;20070;-75
2021/04/17 12:33:26;;;;;;;2.25;1.27;;;18.90;61.90;;;;;;4995597;28;20042;-75
2021/04/17 12:35:54;;;;;;;1.60;1.50;;;18.70;61.30;;;;;;4970781;28;20606;-79
2021/04/17 12:38:23;;;;;;;2.60;1.35;;;18.80;61.00;;;;;;4982165;28;20096;-74
2021/04/17 12:40:54;;;;;;;2.97;1.58;;;18.90;60.60;;;;;;4979927;28;20054;-75
2021/04/17 12:43:24;;;;;;;3.92;1.60;;;18.70;60.40;;;;;;4996899;28;20816;-77
2021/04/17 12:45:51;;;;;;;2.22;1.50;;;18.80;60.20;;;;;;4961782;28;20054;-74
2021/04/17 12:48:19;;;;;;;8.45;1.95;;;18.90;60.30;;;;;;4977642;28;20042;-74
2021/04/17 12:50:49;;;;;;;2.83;1.75;;;19.10;61.20;;;;;;4977108;28;20120;-75
2021/04/17 12:53:23;;;;;;;2.25;1.77;;;19.00;60.70;;;;;;4977356;28;20046;-74
2021/04/17 12:55:52;;;;;;;2.85;1.70;;;18.90;60.70;;;;;;4960214;28;20042;-74
2021/04/17 12:58:21;;;;;;;2.10;1.40;;;18.90;61.20;;;;;;4992275;28;20180;-75
2021/04/17 13:00:50;;;;;;;3.33;1.75;;;19.00;59.20;;;;;;4986328;28;20046;-77
2021/04/17 13:03:18;;;;;;;4.70;2.63;;;19.00;60.40;;;;;;4998108;28;20034;-75
2021/04/17 13:05:46;;;;;;;29.42;24.13;;;19.10;59.90;;;;;;4997301;28;20041;-73
2021/04/17 13:08:14;;;;;;;16.27;10.52;;;19.10;59.60;;;;;;4981949;28;20386;-74